Time;durP1;ratioP1;P1;durP2;ratioP2;P2;SDS_P1;SDS_P2;PMS_P1;PMS_P2;Temp;Humidity;BMP_temperature;BMP_pressure;BME280_temperature;BME280_humidity;BME280_pressure;Samples;Min_cycle;Max_cycle;Signal;HPM_P1;HPM_P2
2023/08/03 00:00:05;;;;;;;6.70;1.88;;;16.90;99.90;;;;;;5010503;28;20088;-64
2023/08/03 00:02:34;;;;;;;5.78;1.35;;;16.80;99.90;;;;;;5026721;22;20548;-67
2023/08/03 00:05:01;;;;;;;6.93;1.70;;;16.80;99.90;;;;;;5021934;28;20057;-67
2023/08/03 00:07:27;;;;;;;3.53;1.13;;;16.90;99.90;;;;;;5031405;28;20045;-66
2023/08/03 00:09:52;;;;;;;4.57;1.20;;;16.90;99.90;;;;;;5028026;28;20041;-67
2023/08/03 00:12:18;;;;;;;5.97;1.42;;;16.90;99.90;;;;;;5027574;28;20041;-68
2023/08/03 00:14:44;;;;;;;5.88;1.27;;;16.90;99.90;;;;;;5016612;28;20407;-68
2023/08/03 00:17:10;;;;;;;4.82;1.40;;;16.90;99.90;;;;;;5009905;28;20037;-68
2023/08/03 00:19:35;;;;;;;4.40;1.40;;;16.80;99.90;;;;;;5002922;28;20034;-67
2023/08/03 00:22:01;;;;;;;4.82;1.50;;;16.90;99.90;;;;;;5007895;28;20084;-67
2023/08/03 00:24:27;;;;;;;3.97;1.40;;;16.80;99.90;;;;;;5008081;28;20220;-67
2023/08/03 00:26:52;;;;;;;6.70;1.52;;;16.80;99.90;;;;;;5010974;28;20072;-67
2023/08/03 00:29:18;;;;;;;5.43;1.80;;;16.70;99.90;;;;;;5013015;28;20400;-66
2023/08/03 00:31:43;;;;;;;6.13;1.73;;;16.70;99.90;;;;;;5025993;28;20035;-66
2023/08/03 00:34:09;;;;;;;6.13;1.80;;;16.70;99.90;;;;;;5022891;28;20034;-66
2023/08/03 00:36:44;;;;;;;4.47;1.45;;;16.70;99.90;;;;;;5013493;28;20046;-66
2023/08/03 00:39:10;;;;;;;4.57;2.03;;;16.60;99.90;;;;;;5010999;28;20045;-66
2023/08/03 00:41:36;;;;;;;5.35;2.05;;;16.70;99.90;;;;;;5012084;28;20045;-66
2023/08/03 00:44:01;;;;;;;3.15;1.10;;;16.60;99.90;;;;;;5014262;28;20038;-66
2023/08/03 00:46:27;;;;;;;4.18;1.38;;;16.60;99.90;;;;;;5018374;28;20455;-66
2023/08/03 00:48:52;;;;;;;5.38;1.20;;;16.60;99.90;;;;;;5022368;28;20045;-66
2023/08/03 00:51:18;;;;;;;2.40;1.05;;;16.60;99.90;;;;;;5014554;28;20038;-66
2023/08/03 00:53:46;;;;;;;5.00;1.33;;;16.50;99.90;;;;;;5014616;28;20034;-66
2023/08/03 00:56:12;;;;;;;3.65;1.17;;;16.60;99.90;;;;;;5010679;28;20046;-66
2023/08/03 00:58:39;;;;;;;4.13;1.48;;;16.60;99.90;;;;;;5009757;28;20129;-66
2023/08/03 01:01:06;;;;;;;2.50;1.20;;;16.60;99.90;;;;;;5015568;28;20583;-66
2023/08/03 01:03:32;;;;;;;4.60;1.10;;;16.60;99.90;;;;;;5029216;28;20043;-66
2023/08/03 01:05:58;;;;;;;2.65;1.25;;;16.50;99.90;;;;;;5032243;28;20073;-66
2023/08/03 01:08:24;;;;;;;2.95;1.30;;;16.50;99.90;;;;;;5020848;28;20568;-66
2023/08/03 01:10:51;;;;;;;3.08;1.30;;;16.60;99.90;;;;;;5013927;28;20381;-66
2023/08/03 01:13:16;;;;;;;5.50;1.35;;;16.60;99.90;;;;;;5024708;28;20050;-67
2023/08/03 01:15:42;;;;;;;2.58;1.00;;;16.60;99.90;;;;;;5011172;28;20044;-67
2023/08/03 01:18:08;;;;;;;5.05;1.65;;;16.50;99.90;;;;;;5017318;28;20056;-67
2023/08/03 01:20:36;;;;;;;2.08;1.10;;;16.50;99.90;;;;;;5014010;28;20042;-66
2023/08/03 01:23:04;;;;;;;2.45;1.13;;;16.50;99.90;;;;;;5015444;28;20034;-66
2023/08/03 01:25:34;;;;;;;3.78;1.00;;;16.50;99.90;;;;;;5033430;28;20053;-66
2023/08/03 01:27:59;;;;;;;3.15;1.10;;;16.50;99.90;;;;;;5019634;28;20041;-67
2023/08/03 01:30:25;;;;;;;3.90;1.00;;;16.50;99.90;;;;;;5003577;28;20432;-66
2023/08/03 01:32:51;;;;;;;3.70;1.30;;;16.50;99.90;;;;;;5009034;28;20081;-66
2023/08/03 01:35:17;;;;;;;3.13;1.38;;;16.40;99.90;;;;;;5013626;28;20073;-66
2023/08/03 01:37:43;;;;;;;4.18;1.15;;;16.50;99.90;;;;;;5007438;28;20045;-67
2023/08/03 01:40:12;;;;;;;3.40;1.10;;;16.40;99.90;;;;;;5014748;28;20034;-66
2023/08/03 01:42:38;;;;;;;2.50;1.05;;;16.40;99.90;;;;;;5017508;28;20046;-66
2023/08/03 01:45:06;;;;;;;2.65;1.30;;;16.50;99.90;;;;;;5010743;28;20041;-66
2023/08/03 01:47:32;;;;;;;2.63;1.17;;;16.50;99.90;;;;;;5006058;28;20038;-66
2023/08/03 01:49:57;;;;;;;2.88;1.25;;;16.50;99.90;;;;;;5014751;28;20065;-66
2023/08/03 01:52:23;;;;;;;4.10;1.20;;;16.50;99.90;;;;;;5019565;28;20484;-66
2023/08/03 01:54:49;;;;;;;2.95;1.15;;;16.40;99.90;;;;;;5012670;28;20052;-66
2023/08/03 01:57:15;;;;;;;3.88;1.35;;;16.50;99.90;;;;;;5012626;28;20045;-66
2023/08/03 01:59:41;;;;;;;2.58;1.13;;;16.50;99.90;;;;;;5029135;28;20030;-67
2023/08/03 02:02:07;;;;;;;2.78;1.08;;;16.50;99.90;;;;;;5012906;28;20129;-67
2023/08/03 02:04:32;;;;;;;2.20;1.20;;;16.50;99.90;;;;;;5007211;28;20044;-67
2023/08/03 02:07:21;;;;;;;1.67;1.13;;;16.40;99.90;;;;;;5007651;28;20128;-67
2023/08/03 02:09:47;;;;;;;3.33;1.27;;;16.40;99.90;;;;;;5010511;28;20053;-67
2023/08/03 02:12:12;;;;;;;2.60;1.27;;;16.40;99.90;;;;;;5032585;28;20044;-66
2023/08/03 02:14:38;;;;;;;3.88;1.40;;;16.40;99.90;;;;;;5025977;28;20120;-67
2023/08/03 02:17:03;;;;;;;3.53;1.38;;;16.40;99.90;;;;;;5011674;28;20038;-67
2023/08/03 02:19:29;;;;;;;4.32;1.63;;;16.40;99.90;;;;;;5012493;28;20480;-66
2023/08/03 02:21:55;;;;;;;3.75;1.60;;;16.40;99.90;;;;;;5012540;28;20056;-66
2023/08/03 02:24:20;;;;;;;2.25;1.70;;;16.40;99.90;;;;;;5011917;28;20420;-67
2023/08/03 02:26:46;;;;;;;3.33;1.70;;;16.40;99.90;;;;;;5009212;28;20049;-66
2023/08/03 02:29:12;;;;;;;3.05;1.73;;;16.50;99.90;;;;;;5010329;28;20056;-67
2023/08/03 02:31:37;;;;;;;3.90;1.92;;;16.40;99.90;;;;;;5027578;28;20068;-67
2023/08/03 02:34:04;;;;;;;2.90;2.08;;;16.40;99.90;;;;;;5018493;28;20065;-66
2023/08/03 02:36:29;;;;;;;3.28;2.30;;;16.40;99.90;;;;;;5008277;28;20133;-66
2023/08/03 02:38:55;;;;;;;4.30;2.20;;;16.50;99.90;;;;;;5009721;28;20121;-66
2023/08/03 02:41:20;;;;;;;2.47;2.20;;;16.50;99.90;;;;;;5011210;28;20377;-66
2023/08/03 02:43:46;;;;;;;5.60;2.30;;;16.40;99.90;;;;;;5021708;28;20042;-66
2023/08/03 02:46:12;;;;;;;6.28;2.65;;;16.50;99.90;;;;;;5019162;28;20140;-66
2023/08/03 02:48:43;;;;;;;4.07;2.40;;;16.50;99.90;;;;;;5020904;28;20034;-66
2023/08/03 02:51:09;;;;;;;4.07;2.45;;;16.50;99.90;;;;;;5009362;28;20029;-66
2023/08/03 02:53:34;;;;;;;5.53;3.00;;;16.50;99.90;;;;;;5007592;28;20038;-66
2023/08/03 02:56:00;;;;;;;5.60;3.20;;;16.50;99.90;;;;;;5007983;28;20022;-66
2023/08/03 02:58:26;;;;;;;5.10;3.08;;;16.50;99.90;;;;;;5018419;28;20594;-66
2023/08/03 03:00:51;;;;;;;4.88;3.05;;;16.50;99.90;;;;;;5031830;28;20041;-66
2023/08/03 03:03:17;;;;;;;7.03;3.65;;;16.50;99.90;;;;;;5028976;28;20112;-66
2023/08/03 03:05:42;;;;;;;9.60;3.80;;;16.50;99.90;;;;;;5008908;28;20128;-66
2023/08/03 03:08:08;;;;;;;5.75;3.50;;;16.50;99.90;;;;;;5011228;28;20400;-66
2023/08/03 03:10:33;;;;;;;7.82;4.00;;;16.60;99.90;;;;;;5011381;28;20046;-66
2023/08/03 03:12:59;;;;;;;5.75;3.42;;;16.50;99.90;;;;;;5019375;28;20120;-66
2023/08/03 03:15:25;;;;;;;7.82;3.92;;;16.60;99.90;;;;;;5024485;28;20030;-66
2023/08/03 03:17:50;;;;;;;5.97;3.90;;;16.50;99.90;;;;;;5031565;28;20116;-66
2023/08/03 03:20:16;;;;;;;5.88;3.90;;;16.60;99.90;;;;;;5024200;28;20041;-66
2023/08/03 03:22:41;;;;;;;8.85;3.45;;;16.50;99.90;;;;;;5011908;28;20484;-66
2023/08/03 03:25:07;;;;;;;6.13;3.33;;;16.60;99.90;;;;;;5008660;28;20139;-66
2023/08/03 03:27:33;;;;;;;9.02;3.80;;;16.60;99.90;;;;;;5011107;28;20041;-67
2023/08/03 03:29:59;;;;;;;8.50;3.60;;;16.60;99.90;;;;;;5029907;28;20038;-66
2023/08/03 03:32:24;;;;;;;10.25;4.28;;;16.70;99.90;;;;;;5031682;28;20037;-66
2023/08/03 03:34:50;;;;;;;10.43;4.47;;;16.60;99.90;;;;;;5011227;28;20124;-66
2023/08/03 03:37:15;;;;;;;11.38;4.22;;;16.60;99.90;;;;;;5003634;28;20063;-66
2023/08/03 03:39:41;;;;;;;7.63;3.72;;;16.60;99.90;;;;;;5019326;28;20406;-67
2023/08/03 03:42:06;;;;;;;10.57;3.70;;;16.60;99.90;;;;;;5031856;28;20033;-67
2023/08/03 03:44:35;;;;;;;10.90;3.85;;;16.60;99.90;;;;;;5015406;28;20069;-66
2023/08/03 03:47:01;;;;;;;9.45;3.47;;;16.70;99.90;;;;;;5010623;28;20038;-67
2023/08/03 03:49:27;;;;;;;9.73;3.17;;;16.60;99.90;;;;;;5011802;28;20054;-66
2023/08/03 03:51:52;;;;;;;9.10;3.10;;;16.70;99.90;;;;;;5018826;28;20045;-66
2023/08/03 03:54:18;;;;;;;10.68;3.28;;;16.70;99.90;;;;;;5019004;28;20036;-66
2023/08/03 03:56:43;;;;;;;15.73;3.83;;;16.70;99.90;;;;;;5016117;28;20480;-66
2023/08/03 03:59:09;;;;;;;6.78;2.75;;;16.70;99.90;;;;;;5011957;28;20038;-66
2023/08/03 04:01:34;;;;;;;10.13;3.28;;;16.70;99.90;;;;;;5006163;28;20092;-66
2023/08/03 04:04:00;;;;;;;12.43;3.47;;;16.70;99.90;;;;;;5014583;28;20030;-66
2023/08/03 04:06:26;;;;;;;11.13;2.85;;;16.70;99.90;;;;;;5014794;28;20073;-66
2023/08/03 04:08:51;;;;;;;12.90;3.58;;;16.70;99.90;;;;;;5013333;28;20542;-66
2023/08/03 04:11:17;;;;;;;8.77;3.05;;;16.70;99.90;;;;;;5005437;28;20038;-65
2023/08/03 04:13:43;;;;;;;9.50;2.72;;;16.70;99.90;;;;;;5022913;28;20025;-66
2023/08/03 04:16:08;;;;;;;10.93;3.05;;;16.60;99.90;;;;;;5015337;28;20038;-66
2023/08/03 04:18:35;;;;;;;9.00;2.80;;;16.70;99.90;;;;;;5014170;28;20048;-66
2023/08/03 04:21:00;;;;;;;11.52;2.95;;;16.70;99.90;;;;;;5015755;28;20049;-66
2023/08/03 04:23:26;;;;;;;8.57;2.67;;;16.70;99.90;;;;;;5005038;28;20038;-66
2023/08/03 04:25:52;;;;;;;7.00;2.85;;;16.70;99.90;;;;;;5013422;28;20050;-66
2023/08/03 04:28:17;;;;;;;9.23;2.67;;;16.70;99.90;;;;;;5008550;28;20046;-66
2023/08/03 04:30:43;;;;;;;9.27;2.70;;;16.70;99.90;;;;;;5008867;28;20499;-66
2023/08/03 04:33:09;;;;;;;11.45;3.03;;;16.70;99.90;;;;;;5013390;28;20037;-66
2023/08/03 04:35:35;;;;;;;13.90;3.00;;;16.70;99.90;;;;;;5009385;28;20044;-66
2023/08/03 04:38:00;;;;;;;7.88;2.60;;;16.70;99.90;;;;;;5012199;28;20042;-66
2023/08/03 04:40:26;;;;;;;14.27;2.95;;;16.70;99.90;;;;;;5028471;28;20045;-66
2023/08/03 04:42:52;;;;;;;9.02;2.88;;;16.70;99.90;;;;;;5024203;28;20096;-66
2023/08/03 04:45:17;;;;;;;12.05;2.90;;;16.70;99.90;;;;;;5014253;28;20038;-66
2023/08/03 04:47:43;;;;;;;10.98;2.90;;;16.70;99.90;;;;;;5020383;28;20122;-66
2023/08/03 04:50:09;;;;;;;7.10;2.70;;;16.70;99.90;;;;;;5034142;28;20392;-66
2023/08/03 04:52:34;;;;;;;10.13;2.90;;;16.70;99.90;;;;;;5025955;28;20050;-66
2023/08/03 04:55:00;;;;;;;11.52;3.15;;;16.70;99.90;;;;;;5015531;28;20132;-66
2023/08/03 04:57:25;;;;;;;12.60;3.25;;;16.70;99.90;;;;;;5014090;28;20381;-66
2023/08/03 04:59:51;;;;;;;14.65;3.70;;;16.70;99.90;;;;;;5027052;28;20037;-67
2023/08/03 05:02:16;;;;;;;9.13;4.10;;;16.70;99.90;;;;;;5002357;28;20403;-67
2023/08/03 05:04:42;;;;;;;8.65;4.55;;;16.70;99.90;;;;;;5009475;28;20357;-66
2023/08/03 05:07:08;;;;;;;12.00;4.57;;;16.70;99.90;;;;;;5013113;28;20120;-66
2023/08/03 05:09:33;;;;;;;12.63;4.32;;;16.70;99.90;;;;;;5028811;28;20108;-66
2023/08/03 05:11:59;;;;;;;13.50;4.63;;;16.70;99.90;;;;;;5033249;28;20484;-66
2023/08/03 05:14:24;;;;;;;7.40;4.20;;;16.80;99.90;;;;;;5012800;28;20038;-66
2023/08/03 05:16:50;;;;;;;12.02;4.65;;;16.80;99.90;;;;;;5012943;28;20042;-66
2023/08/03 05:19:15;;;;;;;15.73;5.00;;;16.80;99.90;;;;;;5013892;28;20049;-66
2023/08/03 05:21:41;;;;;;;15.07;5.25;;;16.80;99.90;;;;;;5019975;28;20041;-66
2023/08/03 05:24:07;;;;;;;14.93;5.35;;;16.80;99.90;;;;;;5017746;28;20029;-66
2023/08/03 05:26:33;;;;;;;12.98;5.05;;;16.80;99.90;;;;;;5007131;28;20109;-66
2023/08/03 05:28:59;;;;;;;11.77;5.05;;;16.90;99.90;;;;;;5012645;28;20061;-66
2023/08/03 05:31:26;;;;;;;10.35;5.10;;;16.90;99.90;;;;;;5012936;28;20046;-66
2023/08/03 05:33:53;;;;;;;12.32;5.47;;;17.00;99.90;;;;;;5012082;28;20045;-67
2023/08/03 05:36:19;;;;;;;12.77;5.43;;;17.00;99.90;;;;;;5012083;28;20046;-66
2023/08/03 05:38:44;;;;;;;13.60;5.10;;;17.00;99.90;;;;;;5012179;28;20161;-66
2023/08/03 05:41:18;;;;;;;11.23;4.93;;;17.00;99.90;;;;;;5004905;28;20112;-66
2023/08/03 05:43:45;;;;;;;10.05;5.45;;;17.00;99.90;;;;;;5020693;28;20065;-67
2023/08/03 05:46:15;;;;;;;12.30;5.38;;;17.10;99.90;;;;;;5020197;28;20042;-66
2023/08/03 05:48:41;;;;;;;11.75;4.65;;;17.10;99.90;;;;;;5010869;28;20046;-66
2023/08/03 05:51:10;;;;;;;11.45;5.53;;;17.10;99.90;;;;;;5031605;28;20048;-66
2023/08/03 05:53:36;;;;;;;9.85;5.32;;;17.20;99.90;;;;;;5014084;28;20421;-66
2023/08/03 05:56:09;;;;;;;14.23;5.07;;;17.20;99.90;;;;;;5001762;28;20039;-66
2023/08/03 05:58:36;;;;;;;14.93;5.45;;;17.20;99.90;;;;;;5004282;28;20088;-66
2023/08/03 06:01:01;;;;;;;10.30;4.93;;;17.30;99.90;;;;;;5025470;28;20037;-66
2023/08/03 06:03:31;;;;;;;10.38;5.38;;;17.30;99.90;;;;;;5035048;23;20469;-65
2023/08/03 06:06:00;;;;;;;10.50;4.72;;;17.30;99.90;;;;;;5025372;28;20064;-65
2023/08/03 06:08:26;;;;;;;12.40;5.03;;;17.40;99.90;;;;;;5025288;28;20041;-65
2023/08/03 06:10:56;;;;;;;9.90;4.57;;;17.40;99.90;;;;;;5026262;28;20384;-66
2023/08/03 06:13:31;;;;;;;12.77;5.32;;;17.40;99.90;;;;;;5024801;28;20034;-65
2023/08/03 06:15:57;;;;;;;13.77;5.32;;;17.50;99.90;;;;;;5010666;28;20054;-65
2023/08/03 06:18:22;;;;;;;13.93;5.13;;;17.50;99.90;;;;;;5008358;28;20125;-65
2023/08/03 06:20:50;;;;;;;11.82;5.20;;;17.50;99.90;;;;;;5010366;28;20077;-65
2023/08/03 06:23:20;;;;;;;9.45;4.80;;;17.60;99.90;;;;;;5012724;28;20084;-65
2023/08/03 06:25:47;;;;;;;12.38;5.28;;;17.60;99.90;;;;;;5009733;28;20042;-65
2023/08/03 06:28:21;;;;;;;9.07;5.53;;;17.70;99.90;;;;;;5012689;28;20030;-63
2023/08/03 06:30:48;;;;;;;12.52;5.65;;;17.70;99.90;;;;;;5011966;28;20037;-63
2023/08/03 06:33:17;;;;;;;11.98;5.57;;;17.70;99.90;;;;;;5012690;28;20081;-63
2023/08/03 06:35:44;;;;;;;10.82;5.18;;;17.80;99.90;;;;;;5009760;28;20037;-63
2023/08/03 06:38:15;;;;;;;12.18;5.53;;;17.80;99.90;;;;;;5008827;28;20044;-64
2023/08/03 06:40:41;;;;;;;;;;;17.90;99.90;;;;;;5012920;28;20033;-65
2023/08/03 06:43:08;;;;;;;11.43;4.97;;;17.90;99.90;;;;;;5012711;28;19921;-64
2023/08/03 06:45:35;;;;;;;9.20;4.45;;;17.90;99.90;;;;;;5012956;28;20038;-65
2023/08/03 06:48:01;;;;;;;16.48;5.88;;;18.00;99.90;;;;;;5009155;28;20095;-64
2023/08/03 06:50:31;;;;;;;14.07;4.55;;;18.10;99.90;;;;;;5009249;28;20037;-64
2023/08/03 06:52:57;;;;;;;10.40;4.97;;;18.10;99.90;;;;;;5007928;28;20218;-65
2023/08/03 06:55:23;;;;;;;10.82;5.00;;;18.20;99.90;;;;;;5009738;28;20037;-65
2023/08/03 06:57:49;;;;;;;9.63;5.00;;;18.20;99.90;;;;;;5012612;28;20124;-65
2023/08/03 07:00:15;;;;;;;7.97;4.75;;;18.20;99.90;;;;;;5012153;28;20685;-64
2023/08/03 07:02:50;;;;;;;10.90;4.85;;;18.30;99.90;;;;;;5012128;28;20030;-65
2023/08/03 07:05:16;;;;;;;15.55;5.60;;;18.30;99.90;;;;;;5011661;28;20041;-65
2023/08/03 07:07:42;;;;;;;13.23;5.47;;;18.40;99.90;;;;;;5012162;28;20116;-65
2023/08/03 07:10:08;;;;;;;7.03;4.65;;;18.40;99.90;;;;;;5012421;28;20151;-65
2023/08/03 07:12:36;;;;;;;7.15;4.68;;;18.60;99.90;;;;;;5011075;28;20038;-65
2023/08/03 07:15:04;;;;;;;10.95;4.95;;;18.70;99.90;;;;;;5010186;28;20034;-65
2023/08/03 07:17:31;;;;;;;11.60;4.15;;;18.80;99.90;;;;;;5010244;28;20124;-65
2023/08/03 07:19:57;;;;;;;7.68;4.55;;;19.00;99.90;;;;;;5008791;28;20674;-65
2023/08/03 07:22:23;;;;;;;10.02;4.53;;;19.10;99.90;;;;;;5011338;28;20065;-65
2023/08/03 07:24:49;;;;;;;8.23;4.13;;;19.20;99.90;;;;;;5011486;28;20253;-65
2023/08/03 07:27:15;;;;;;;9.10;3.70;;;19.30;99.90;;;;;;5010566;28;20081;-65
2023/08/03 07:29:42;;;;;;;10.95;4.10;;;19.30;99.90;;;;;;5010726;28;20143;-65
2023/08/03 07:32:09;;;;;;;6.80;3.47;;;19.30;99.90;;;;;;5008009;28;20062;-65
2023/08/03 07:34:35;;;;;;;12.02;3.70;;;19.30;99.90;;;;;;5009345;28;20049;-65
2023/08/03 07:37:01;;;;;;;7.35;3.08;;;19.30;99.90;;;;;;5009138;28;20451;-65
2023/08/03 07:39:27;;;;;;;9.73;3.45;;;19.30;99.90;;;;;;5004798;28;20508;-64
2023/08/03 07:41:53;;;;;;;8.27;3.78;;;19.20;99.90;;;;;;5012227;28;20034;-64
2023/08/03 07:44:18;;;;;;;8.00;3.60;;;19.10;99.90;;;;;;5007529;28;20092;-65
2023/08/03 07:46:45;;;;;;;12.52;3.55;;;19.00;99.90;;;;;;5008790;28;20468;-64
2023/08/03 07:49:11;;;;;;;8.80;3.30;;;19.00;99.90;;;;;;5006522;28;20050;-64
2023/08/03 07:51:37;;;;;;;7.28;3.22;;;18.90;99.90;;;;;;5008862;28;20046;-64
2023/08/03 07:54:03;;;;;;;6.25;3.20;;;18.80;99.90;;;;;;5007765;28;20518;-64
2023/08/03 07:56:28;;;;;;;10.18;3.00;;;18.70;99.90;;;;;;5009862;28;20038;-64
2023/08/03 07:58:54;;;;;;;7.40;2.58;;;18.70;99.90;;;;;;5010546;28;20111;-64
2023/08/03 08:01:20;;;;;;;6.03;2.42;;;18.80;99.90;;;;;;5009020;28;20030;-63
2023/08/03 08:03:47;;;;;;;5.65;2.38;;;19.00;99.90;;;;;;5005508;28;20038;-63
2023/08/03 08:06:15;;;;;;;7.63;2.70;;;19.30;99.90;;;;;;5009993;28;20041;-64
2023/08/03 08:08:41;;;;;;;7.22;1.95;;;19.60;99.90;;;;;;5006309;28;20046;-63
2023/08/03 08:11:07;;;;;;;4.30;1.60;;;19.90;99.90;;;;;;5000993;28;20404;-64
2023/08/03 08:13:33;;;;;;;6.57;1.70;;;20.10;99.90;;;;;;5009264;28;20062;-64
2023/08/03 08:16:01;;;;;;;8.05;1.60;;;20.20;99.90;;;;;;5010701;28;20419;-64
2023/08/03 08:18:27;;;;;;;7.47;1.73;;;20.10;99.90;;;;;;5012880;28;20131;-64
2023/08/03 08:21:01;;;;;;;9.38;1.52;;;20.10;99.90;;;;;;5008397;28;20615;-64
2023/08/03 08:23:27;;;;;;;4.07;1.40;;;20.20;99.90;;;;;;5010361;28;20092;-64
2023/08/03 08:25:52;;;;;;;5.32;1.40;;;20.40;99.90;;;;;;5002694;28;20037;-64
2023/08/03 08:28:19;;;;;;;5.43;1.45;;;20.50;99.90;;;;;;5011720;28;20042;-64
2023/08/03 08:30:45;;;;;;;4.72;1.40;;;20.50;99.90;;;;;;5010443;28;20046;-64
2023/08/03 08:33:11;;;;;;;5.03;1.50;;;20.30;99.90;;;;;;5003758;28;20045;-64
2023/08/03 08:35:37;;;;;;;5.50;1.45;;;20.30;99.90;;;;;;5001590;28;20129;-64
2023/08/03 08:38:05;;;;;;;4.78;1.10;;;20.30;99.90;;;;;;5012164;28;20200;-64
2023/08/03 08:40:40;;;;;;;5.90;1.25;;;20.40;99.90;;;;;;5013614;28;20084;-64
2023/08/03 08:43:07;;;;;;;4.90;1.00;;;20.40;99.90;;;;;;5005908;28;20402;-64
2023/08/03 08:45:36;;;;;;;3.78;0.85;;;20.30;99.90;;;;;;5012818;28;20052;-64
2023/08/03 08:48:03;;;;;;;1.80;0.80;;;20.20;99.90;;;;;;5014965;28;20038;-64
2023/08/03 08:50:29;;;;;;;3.63;0.80;;;20.20;99.90;;;;;;5012881;28;20266;-64
2023/08/03 08:52:55;;;;;;;2.28;0.77;;;20.30;99.90;;;;;;5010392;28;20085;-68
2023/08/03 08:55:26;;;;;;;2.20;0.80;;;20.60;99.90;;;;;;5009315;28;20050;-66
2023/08/03 08:57:53;;;;;;;2.50;1.23;;;20.90;99.90;;;;;;4995158;28;20062;-66
2023/08/03 09:00:20;;;;;;;1.95;0.90;;;21.10;99.90;;;;;;5008853;28;20128;-66
2023/08/03 09:02:47;;;;;;;3.97;0.90;;;21.20;99.90;;;;;;5010840;28;21313;-66
2023/08/03 09:05:16;;;;;;;1.63;0.68;;;21.40;99.90;;;;;;5011133;28;20045;-67
2023/08/03 09:07:42;;;;;;;3.55;1.15;;;21.50;99.90;;;;;;5009478;28;20096;-67
2023/08/03 09:10:09;;;;;;;1.70;0.55;;;21.70;99.90;;;;;;5009713;28;20042;-67
2023/08/03 09:12:35;;;;;;;3.88;0.70;;;21.70;99.90;;;;;;5010425;28;20663;-67
2023/08/03 09:15:01;;;;;;;3.28;0.82;;;21.60;99.90;;;;;;5008907;28;20041;-67
2023/08/03 09:17:27;;;;;;;1.67;0.70;;;21.70;99.90;;;;;;5011085;28;20395;-67
2023/08/03 09:19:54;;;;;;;1.58;0.80;;;21.90;99.90;;;;;;5013119;28;20116;-67
2023/08/03 09:22:22;;;;;;;2.70;0.70;;;22.00;99.90;;;;;;5004726;28;20041;-66
2023/08/03 09:25:07;;;;;;;3.33;0.73;;;22.10;99.90;;;;;;5010937;28;20042;-67
2023/08/03 09:27:34;;;;;;;3.47;0.80;;;22.10;99.90;;;;;;5009795;28;20118;-67
2023/08/03 09:30:04;;;;;;;4.35;0.90;;;22.00;99.90;;;;;;5008933;28;20089;-67
2023/08/03 09:32:32;;;;;;;3.70;1.00;;;22.00;99.90;;;;;;5013109;28;20464;-67
2023/08/03 09:34:58;;;;;;;4.35;0.70;;;22.10;99.90;;;;;;5010063;28;20080;-66
2023/08/03 09:37:34;;;;;;;3.15;0.70;;;22.10;99.90;;;;;;5010354;28;20492;-67
2023/08/03 09:40:03;;;;;;;1.77;0.77;;;22.20;99.90;;;;;;5008022;28;20034;-66
2023/08/03 09:42:31;;;;;;;2.63;0.70;;;22.40;99.90;;;;;;5013540;28;20056;-66
2023/08/03 09:45:03;;;;;;;4.28;1.00;;;22.50;99.90;;;;;;4991426;28;20037;-67
2023/08/03 09:47:34;;;;;;;5.45;0.93;;;22.60;99.90;;;;;;5011275;28;20108;-66
2023/08/03 09:50:00;;;;;;;2.53;0.70;;;22.70;99.90;;;;;;5011395;28;20570;-66
2023/08/03 09:52:27;;;;;;;3.35;0.95;;;22.70;99.90;;;;;;5011993;28;20073;-67
2023/08/03 09:55:13;;;;;;;2.67;0.80;;;22.80;99.90;;;;;;5011267;28;20496;-67
2023/08/03 09:57:42;;;;;;;2.72;0.70;;;23.00;99.90;;;;;;5013742;28;20045;-66
2023/08/03 10:00:08;;;;;;;4.97;0.95;;;23.20;99.90;;;;;;5021610;28;20561;-67
2023/08/03 10:02:49;;;;;;;2.70;0.90;;;23.20;99.90;;;;;;5013234;28;20491;-66
2023/08/03 10:05:18;;;;;;;6.45;0.90;;;23.30;99.90;;;;;;5006572;28;20042;-67
2023/08/03 10:07:54;;;;;;;2.28;0.90;;;23.10;99.90;;;;;;5010201;28;20091;-67
2023/08/03 10:10:23;;;;;;;1.77;0.65;;;23.00;99.90;;;;;;5009719;28;20517;-66
2023/08/03 10:12:56;;;;;;;2.58;0.90;;;23.00;99.90;;;;;;5011874;28;20095;-67
2023/08/03 10:15:23;;;;;;;4.90;0.70;;;22.80;99.90;;;;;;5009974;28;20519;-67
2023/08/03 10:17:49;;;;;;;3.63;0.85;;;22.70;99.90;;;;;;5007841;28;20130;-67
2023/08/03 10:20:15;;;;;;;2.90;0.90;;;22.50;99.90;;;;;;5009466;28;20088;-67
2023/08/03 10:23:07;;;;;;;5.40;1.00;;;22.30;99.90;;;;;;5010072;28;20057;-67
2023/08/03 10:25:32;;;;;;;4.18;0.90;;;22.10;99.90;;;;;;5024266;28;20127;-66
2023/08/03 10:28:13;;;;;;;2.92;1.00;;;21.80;99.90;;;;;;5005663;28;20088;-66
2023/08/03 10:31:04;;;;;;;6.50;0.90;;;21.60;99.90;;;;;;4999382;28;20065;-66
2023/08/03 10:33:50;;;;;;;3.67;1.20;;;21.50;99.90;;;;;;5006733;28;20057;-67
2023/08/03 10:36:28;;;;;;;2.63;0.68;;;21.60;99.90;;;;;;5006994;28;20084;-67
2023/08/03 10:38:55;;;;;;;3.00;1.05;;;21.90;99.90;;;;;;5009285;28;20042;-67
2023/08/03 10:41:23;;;;;;;3.72;0.90;;;22.20;99.90;;;;;;5008493;28;20451;-67
2023/08/03 10:44:07;;;;;;;3.30;1.10;;;22.50;99.90;;;;;;5008236;28;20066;-67
2023/08/03 10:46:37;;;;;;;3.70;1.00;;;22.70;99.90;;;;;;5007826;28;20049;-67
2023/08/03 10:49:22;;;;;;;4.88;0.88;;;22.90;99.90;;;;;;5005951;28;20112;-67
2023/08/03 10:51:53;;;;;;;2.83;0.93;;;22.90;99.90;;;;;;5011172;28;20052;-67
2023/08/03 10:54:20;;;;;;;2.47;0.70;;;22.90;99.90;;;;;;5006320;28;20061;-67
2023/08/03 10:57:10;;;;;;;3.25;0.80;;;22.80;99.90;;;;;;5008323;28;20045;-67
2023/08/03 10:59:40;;;;;;;2.97;0.82;;;23.00;99.90;;;;;;5008655;28;20034;-67
2023/08/03 11:02:25;;;;;;;4.57;0.90;;;23.10;99.90;;;;;;5011220;28;20062;-67
2023/08/03 11:04:52;;;;;;;3.45;0.77;;;23.20;99.90;;;;;;5011710;28;20088;-67
2023/08/03 11:07:27;;;;;;;3.00;0.80;;;23.10;99.90;;;;;;5010263;28;20041;-67
2023/08/03 11:09:54;;;;;;;4.28;1.60;;;23.10;99.90;;;;;;5003714;28;20050;-66
2023/08/03 11:12:22;;;;;;;4.07;1.10;;;23.20;99.90;;;;;;5011665;28;20042;-67
2023/08/03 11:14:50;;;;;;;4.07;0.80;;;23.10;99.90;;;;;;5011469;28;20042;-67
2023/08/03 11:17:20;;;;;;;3.92;1.00;;;23.10;99.90;;;;;;5002882;28;20209;-67
2023/08/03 11:19:46;;;;;;;5.90;1.25;;;23.20;99.90;;;;;;5003503;28;20035;-67
2023/08/03 11:22:12;;;;;;;4.13;0.90;;;23.20;99.90;;;;;;5011124;28;20068;-67
2023/08/03 11:24:38;;;;;;;4.18;0.90;;;23.30;99.90;;;;;;5008390;28;20038;-67
2023/08/03 11:27:07;;;;;;;5.25;1.00;;;23.30;99.90;;;;;;5011333;28;20447;-67
2023/08/03 11:29:36;;;;;;;5.28;1.38;;;23.50;99.90;;;;;;5010067;28;20065;-67
2023/08/03 11:32:04;;;;;;;3.47;1.13;;;23.60;99.90;;;;;;5010985;28;20112;-67
2023/08/03 11:34:29;;;;;;;8.05;1.20;;;23.60;99.90;;;;;;5011926;28;20045;-67
2023/08/03 11:36:56;;;;;;;3.65;1.00;;;23.40;99.90;;;;;;5007759;28;20049;-67
2023/08/03 11:39:21;;;;;;;2.58;0.90;;;23.20;99.90;;;;;;5010806;28;20034;-67
2023/08/03 11:41:50;;;;;;;4.82;1.00;;;23.00;99.90;;;;;;5007690;28;20492;-66
2023/08/03 11:44:20;;;;;;;3.15;0.88;;;22.90;99.90;;;;;;5002203;28;20435;-66
2023/08/03 11:46:49;;;;;;;4.20;1.00;;;22.80;99.90;;;;;;5008517;28;20590;-67
2023/08/03 11:49:15;;;;;;;3.88;0.80;;;22.90;99.90;;;;;;5008145;28;20113;-67
2023/08/03 11:51:41;;;;;;;7.15;0.95;;;23.00;99.90;;;;;;4997202;28;20045;-67
2023/08/03 11:54:12;;;;;;;3.97;0.82;;;23.00;99.90;;;;;;5009244;28;20500;-67
2023/08/03 11:56:39;;;;;;;1.83;0.75;;;23.00;99.90;;;;;;5011499;28;20117;-67
2023/08/03 11:59:08;;;;;;;2.95;0.70;;;23.10;99.90;;;;;;5011380;28;20046;-67
2023/08/03 12:01:51;;;;;;;2.05;0.75;;;23.20;99.90;;;;;;5007089;28;20484;-67
2023/08/03 12:04:17;;;;;;;4.15;0.73;;;23.30;99.90;;;;;;5028018;22;20033;-68
2023/08/03 12:06:48;;;;;;;7.05;1.58;;;23.40;99.90;;;;;;5031421;28;20046;-68
2023/08/03 12:09:25;;;;;;;2.10;0.85;;;23.30;99.90;;;;;;5030053;28;20025;-67
2023/08/03 12:11:58;;;;;;;3.38;0.80;;;23.30;99.90;;;;;;5030941;28;20077;-67
2023/08/03 12:14:24;;;;;;;3.15;0.80;;;23.30;99.90;;;;;;5019741;28;20112;-67
2023/08/03 12:16:49;;;;;;;2.38;0.70;;;23.30;99.90;;;;;;5013313;28;20128;-67
2023/08/03 12:19:15;;;;;;;5.30;0.82;;;23.20;99.90;;;;;;5012570;28;20133;-66
2023/08/03 12:21:41;;;;;;;1.67;0.60;;;23.20;99.90;;;;;;5014116;28;20100;-67
2023/08/03 12:24:07;;;;;;;1.50;0.60;;;23.20;99.90;;;;;;5016994;28;20030;-67
2023/08/03 12:26:33;;;;;;;2.28;0.85;;;23.00;99.90;;;;;;5006422;28;20046;-67
2023/08/03 12:28:59;;;;;;;2.85;0.60;;;22.90;99.90;;;;;;5030843;28;20128;-68
2023/08/03 12:31:25;;;;;;;6.00;1.33;;;22.70;99.90;;;;;;5026810;28;20044;-68
2023/08/03 12:33:50;;;;;;;5.20;1.08;;;22.70;99.90;;;;;;5009295;28;20042;-68
2023/08/03 12:36:17;;;;;;;2.78;1.48;;;22.70;99.90;;;;;;5007927;28;20038;-68
2023/08/03 12:38:43;;;;;;;3.55;0.80;;;22.70;99.90;;;;;;5009695;28;20042;-68
2023/08/03 12:41:09;;;;;;;3.08;1.17;;;22.90;99.90;;;;;;5008934;28;20038;-68
2023/08/03 12:43:35;;;;;;;6.93;1.40;;;23.00;99.90;;;;;;5014402;28;20148;-68
2023/08/03 12:46:00;;;;;;;5.00;1.23;;;23.20;99.90;;;;;;5011601;28;20508;-68